sensor_id;sensor_type;location;lat;lon;timestamp;P1;durP1;ratioP1;P2;durP2;ratioP2
78820;SDS011;68171;13.882;99.692;2023-06-14T00:00:35;8.98;;;6.38;;
78820;SDS011;68171;13.882;99.692;2023-06-14T00:01:42;9.35;;;6.55;;
78820;SDS011;68171;13.882;99.692;2023-06-14T00:02:49;10.85;;;6.65;;
78820;SDS011;68171;13.882;99.692;2023-06-14T00:03:54;8.55;;;6.20;;
78820;SDS011;68171;13.882;99.692;2023-06-14T00:05:01;9.32;;;6.38;;
78820;SDS011;68171;13.882;99.692;2023-06-14T00:06:06;10.65;;;6.07;;
78820;SDS011;68171;13.882;99.692;2023-06-14T00:07:12;9.75;;;5.93;;
78820;SDS011;68171;13.882;99.692;2023-06-14T00:08:22;8.85;;;5.50;;
78820;SDS011;68171;13.882;99.692;2023-06-14T00:09:28;8.83;;;5.23;;
78820;SDS011;68171;13.882;99.692;2023-06-14T00:10:33;7.03;;;4.45;;
78820;SDS011;68171;13.882;99.692;2023-06-14T00:11:40;8.40;;;4.90;;
78820;SDS011;68171;13.882;99.692;2023-06-14T00:12:45;6.78;;;4.20;;
78820;SDS011;68171;13.882;99.692;2023-06-14T00:13:52;8.93;;;4.35;;
78820;SDS011;68171;13.882;99.692;2023-06-14T00:14:57;7.72;;;4.30;;
78820;SDS011;68171;13.882;99.692;2023-06-14T00:16:04;5.78;;;3.90;;
78820;SDS011;68171;13.882;99.692;2023-06-14T00:17:09;6.40;;;3.85;;
78820;SDS011;68171;13.882;99.692;2023-06-14T00:18:15;7.18;;;5.00;;
78820;SDS011;68171;13.882;99.692;2023-06-14T00:19:21;8.70;;;4.78;;
78820;SDS011;68171;13.882;99.692;2023-06-14T00:20:27;7.47;;;4.90;;
78820;SDS011;68171;13.882;99.692;2023-06-14T00:21:34;8.75;;;5.30;;
78820;SDS011;68171;13.882;99.692;2023-06-14T00:22:40;10.25;;;5.90;;
78820;SDS011;68171;13.882;99.692;2023-06-14T00:23:47;9.52;;;5.95;;
78820;SDS011;68171;13.882;99.692;2023-06-14T00:24:53;9.27;;;5.88;;
78820;SDS011;68171;13.882;99.692;2023-06-14T00:25:59;8.68;;;5.82;;
78820;SDS011;68171;13.882;99.692;2023-06-14T00:27:05;8.70;;;5.88;;
78820;SDS011;68171;13.882;99.692;2023-06-14T00:28:11;8.55;;;5.88;;
78820;SDS011;68171;13.882;99.692;2023-06-14T00:29:18;10.77;;;6.40;;
78820;SDS011;68171;13.882;99.692;2023-06-14T00:30:22;10.02;;;6.10;;
78820;SDS011;68171;13.882;99.692;2023-06-14T00:31:35;10.87;;;6.10;;
78820;SDS011;68171;13.882;99.692;2023-06-14T00:32:41;9.55;;;6.10;;
78820;SDS011;68171;13.882;99.692;2023-06-14T00:33:46;8.63;;;6.07;;
78820;SDS011;68171;13.882;99.692;2023-06-14T00:34:52;8.45;;;5.90;;
78820;SDS011;68171;13.882;99.692;2023-06-14T00:35:57;10.18;;;5.70;;
78820;SDS011;68171;13.882;99.692;2023-06-14T00:37:04;10.43;;;6.50;;
78820;SDS011;68171;13.882;99.692;2023-06-14T00:38:09;9.48;;;6.15;;
78820;SDS011;68171;13.882;99.692;2023-06-14T00:39:17;9.20;;;6.80;;
78820;SDS011;68171;13.882;99.692;2023-06-14T00:40:22;8.95;;;6.13;;
78820;SDS011;68171;13.882;99.692;2023-06-14T00:41:28;11.48;;;7.05;;
78820;SDS011;68171;13.882;99.692;2023-06-14T00:42:33;10.27;;;6.07;;
78820;SDS011;68171;13.882;99.692;2023-06-14T00:43:39;7.88;;;5.90;;
78820;SDS011;68171;13.882;99.692;2023-06-14T00:44:44;8.48;;;5.90;;
78820;SDS011;68171;13.882;99.692;2023-06-14T00:45:50;9.02;;;6.22;;
78820;SDS011;68171;13.882;99.692;2023-06-14T00:46:55;6.95;;;4.97;;
78820;SDS011;68171;13.882;99.692;2023-06-14T00:48:01;7.53;;;4.78;;
78820;SDS011;68171;13.882;99.692;2023-06-14T00:49:07;7.07;;;4.97;;
78820;SDS011;68171;13.882;99.692;2023-06-14T00:50:14;5.88;;;4.38;;
78820;SDS011;68171;13.882;99.692;2023-06-14T00:51:20;6.88;;;4.32;;
78820;SDS011;68171;13.882;99.692;2023-06-14T00:52:26;9.52;;;4.45;;
78820;SDS011;68171;13.882;99.692;2023-06-14T00:53:32;7.50;;;4.47;;
78820;SDS011;68171;13.882;99.692;2023-06-14T00:54:40;6.88;;;3.95;;
78820;SDS011;68171;13.882;99.692;2023-06-14T00:55:46;5.65;;;3.42;;
78820;SDS011;68171;13.882;99.692;2023-06-14T00:56:52;5.57;;;3.38;;
78820;SDS011;68171;13.882;99.692;2023-06-14T00:57:57;7.65;;;3.80;;
78820;SDS011;68171;13.882;99.692;2023-06-14T00:59:03;5.75;;;3.60;;
78820;SDS011;68171;13.882;99.692;2023-06-14T01:00:10;8.57;;;3.60;;
78820;SDS011;68171;13.882;99.692;2023-06-14T01:01:16;5.93;;;4.10;;
78820;SDS011;68171;13.882;99.692;2023-06-14T01:02:22;6.70;;;3.60;;
78820;SDS011;68171;13.882;99.692;2023-06-14T01:03:27;6.72;;;3.53;;
78820;SDS011;68171;13.882;99.692;2023-06-14T01:04:34;6.10;;;3.30;;
78820;SDS011;68171;13.882;99.692;2023-06-14T01:05:39;5.65;;;3.00;;
78820;SDS011;68171;13.882;99.692;2023-06-14T01:06:49;5.15;;;2.95;;
78820;SDS011;68171;13.882;99.692;2023-06-14T01:09:26;5.35;;;2.85;;
78820;SDS011;68171;13.882;99.692;2023-06-14T01:10:40;5.85;;;2.90;;
78820;SDS011;68171;13.882;99.692;2023-06-14T01:11:58;5.45;;;2.65;;
78820;SDS011;68171;13.882;99.692;2023-06-14T01:13:08;5.40;;;2.78;;
78820;SDS011;68171;13.882;99.692;2023-06-14T01:14:17;4.82;;;2.58;;
78820;SDS011;68171;13.882;99.692;2023-06-14T01:15:22;5.38;;;2.83;;
78820;SDS011;68171;13.882;99.692;2023-06-14T01:16:28;4.97;;;2.50;;
78820;SDS011;68171;13.882;99.692;2023-06-14T01:17:35;4.70;;;2.63;;
78820;SDS011;68171;13.882;99.692;2023-06-14T01:18:47;5.07;;;2.42;;
78820;SDS011;68171;13.882;99.692;2023-06-14T01:19:53;5.57;;;2.78;;
78820;SDS011;68171;13.882;99.692;2023-06-14T01:21:01;5.07;;;2.90;;
78820;SDS011;68171;13.882;99.692;2023-06-14T01:22:09;5.18;;;3.00;;
78820;SDS011;68171;13.882;99.692;2023-06-14T01:23:17;4.45;;;2.65;;
78820;SDS011;68171;13.882;99.692;2023-06-14T01:24:22;4.75;;;2.63;;
78820;SDS011;68171;13.882;99.692;2023-06-14T01:25:29;4.75;;;2.50;;
78820;SDS011;68171;13.882;99.692;2023-06-14T01:26:33;7.18;;;2.60;;
78820;SDS011;68171;13.882;99.692;2023-06-14T01:27:41;5.60;;;2.47;;
78820;SDS011;68171;13.882;99.692;2023-06-14T01:28:45;4.50;;;2.38;;
78820;SDS011;68171;13.882;99.692;2023-06-14T01:29:54;4.72;;;2.20;;
78820;SDS011;68171;13.882;99.692;2023-06-14T01:31:00;5.50;;;2.15;;
78820;SDS011;68171;13.882;99.692;2023-06-14T01:32:08;4.35;;;2.20;;
78820;SDS011;68171;13.882;99.692;2023-06-14T01:33:13;5.07;;;2.20;;
78820;SDS011;68171;13.882;99.692;2023-06-14T01:34:20;5.75;;;2.13;;
78820;SDS011;68171;13.882;99.692;2023-06-14T01:35:25;4.57;;;1.98;;
78820;SDS011;68171;13.882;99.692;2023-06-14T01:36:31;3.78;;;2.00;;
78820;SDS011;68171;13.882;99.692;2023-06-14T01:37:37;3.88;;;2.00;;
78820;SDS011;68171;13.882;99.692;2023-06-14T01:38:45;4.67;;;2.43;;
78820;SDS011;68171;13.882;99.692;2023-06-14T01:39:51;5.13;;;2.33;;
78820;SDS011;68171;13.882;99.692;2023-06-14T01:40:57;5.50;;;2.40;;
78820;SDS011;68171;13.882;99.692;2023-06-14T01:42:03;4.45;;;2.30;;
78820;SDS011;68171;13.882;99.692;2023-06-14T01:43:10;5.13;;;2.28;;
78820;SDS011;68171;13.882;99.692;2023-06-14T01:44:16;4.45;;;2.40;;
78820;SDS011;68171;13.882;99.692;2023-06-14T01:45:24;4.00;;;2.25;;
78820;SDS011;68171;13.882;99.692;2023-06-14T01:46:30;3.83;;;2.10;;
78820;SDS011;68171;13.882;99.692;2023-06-14T01:47:36;4.28;;;2.25;;
78820;SDS011;68171;13.882;99.692;2023-06-14T01:48:41;3.83;;;2.28;;
78820;SDS011;68171;13.882;99.692;2023-06-14T01:49:48;3.53;;;2.00;;
78820;SDS011;68171;13.882;99.692;2023-06-14T01:50:53;4.78;;;2.30;;
78820;SDS011;68171;13.882;99.692;2023-06-14T01:51:59;6.97;;;2.58;;
78820;SDS011;68171;13.882;99.692;2023-06-14T01:53:06;4.68;;;2.47;;
78820;SDS011;68171;13.882;99.692;2023-06-14T01:54:14;5.68;;;2.60;;
78820;SDS011;68171;13.882;99.692;2023-06-14T01:55:19;4.68;;;2.42;;
78820;SDS011;68171;13.882;99.692;2023-06-14T01:56:25;4.97;;;2.50;;
78820;SDS011;68171;13.882;99.692;2023-06-14T01:57:31;3.70;;;2.17;;
78820;SDS011;68171;13.882;99.692;2023-06-14T01:58:38;4.72;;;2.20;;
78820;SDS011;68171;13.882;99.692;2023-06-14T01:59:44;4.68;;;2.20;;
78820;SDS011;68171;13.882;99.692;2023-06-14T02:00:52;5.57;;;2.30;;
78820;SDS011;68171;13.882;99.692;2023-06-14T02:01:59;4.57;;;2.30;;
78820;SDS011;68171;13.882;99.692;2023-06-14T02:03:05;4.85;;;2.20;;
78820;SDS011;68171;13.882;99.692;2023-06-14T02:04:11;4.43;;;2.28;;
78820;SDS011;68171;13.882;99.692;2023-06-14T02:05:17;4.45;;;2.60;;
78820;SDS011;68171;13.882;99.692;2023-06-14T02:06:23;4.57;;;2.60;;
78820;SDS011;68171;13.882;99.692;2023-06-14T02:07:30;4.68;;;2.58;;
78820;SDS011;68171;13.882;99.692;2023-06-14T02:08:36;5.50;;;2.60;;
78820;SDS011;68171;13.882;99.692;2023-06-14T02:09:44;5.25;;;2.55;;
78820;SDS011;68171;13.882;99.692;2023-06-14T02:10:49;5.18;;;2.63;;
78820;SDS011;68171;13.882;99.692;2023-06-14T02:11:55;4.57;;;2.17;;
78820;SDS011;68171;13.882;99.692;2023-06-14T02:13:00;4.75;;;2.25;;
78820;SDS011;68171;13.882;99.692;2023-06-14T02:14:06;3.88;;;1.85;;
78820;SDS011;68171;13.882;99.692;2023-06-14T02:15:13;4.38;;;1.75;;
78820;SDS011;68171;13.882;99.692;2023-06-14T02:16:22;6.22;;;1.85;;
78820;SDS011;68171;13.882;99.692;2023-06-14T02:17:28;5.30;;;2.40;;
78820;SDS011;68171;13.882;99.692;2023-06-14T02:18:34;4.72;;;2.10;;
78820;SDS011;68171;13.882;99.692;2023-06-14T02:19:38;4.82;;;2.00;;
78820;SDS011;68171;13.882;99.692;2023-06-14T02:20:45;4.72;;;2.53;;
78820;SDS011;68171;13.882;99.692;2023-06-14T02:21:49;5.57;;;2.40;;
78820;SDS011;68171;13.882;99.692;2023-06-14T02:22:56;4.13;;;2.23;;
78820;SDS011;68171;13.882;99.692;2023-06-14T02:24:01;4.10;;;2.20;;
78820;SDS011;68171;13.882;99.692;2023-06-14T02:25:10;6.10;;;2.40;;
78820;SDS011;68171;13.882;99.692;2023-06-14T02:26:14;5.95;;;2.50;;
78820;SDS011;68171;13.882;99.692;2023-06-14T02:27:20;5.00;;;2.65;;
78820;SDS011;68171;13.882;99.692;2023-06-14T02:28:26;3.38;;;1.60;;
78820;SDS011;68171;13.882;99.692;2023-06-14T02:29:32;5.22;;;2.22;;
78820;SDS011;68171;13.882;99.692;2023-06-14T02:30:37;3.97;;;1.85;;
78820;SDS011;68171;13.882;99.692;2023-06-14T02:31:43;5.22;;;1.70;;
78820;SDS011;68171;13.882;99.692;2023-06-14T02:32:50;3.95;;;1.75;;
78820;SDS011;68171;13.882;99.692;2023-06-14T02:33:56;3.70;;;1.80;;
78820;SDS011;68171;13.882;99.692;2023-06-14T02:35:01;3.65;;;1.60;;
78820;SDS011;68171;13.882;99.692;2023-06-14T02:36:07;3.53;;;1.67;;
78820;SDS011;68171;13.882;99.692;2023-06-14T02:37:12;3.33;;;1.67;;
78820;SDS011;68171;13.882;99.692;2023-06-14T02:38:18;3.75;;;2.00;;
78820;SDS011;68171;13.882;99.692;2023-06-14T02:39:25;3.88;;;1.67;;
78820;SDS011;68171;13.882;99.692;2023-06-14T02:40:32;4.55;;;1.90;;
78820;SDS011;68171;13.882;99.692;2023-06-14T02:41:38;3.58;;;1.52;;
78820;SDS011;68171;13.882;99.692;2023-06-14T02:42:43;3.95;;;1.70;;
78820;SDS011;68171;13.882;99.692;2023-06-14T02:43:50;4.50;;;2.30;;
78820;SDS011;68171;13.882;99.692;2023-06-14T02:44:55;3.70;;;1.80;;
78820;SDS011;68171;13.882;99.692;2023-06-14T02:46:01;4.28;;;1.92;;
78820;SDS011;68171;13.882;99.692;2023-06-14T02:47:06;4.20;;;1.80;;
78820;SDS011;68171;13.882;99.692;2023-06-14T02:48:13;3.42;;;1.65;;
78820;SDS011;68171;13.882;99.692;2023-06-14T02:49:18;3.50;;;1.60;;
78820;SDS011;68171;13.882;99.692;2023-06-14T02:50:24;3.30;;;1.80;;
78820;SDS011;68171;13.882;99.692;2023-06-14T02:51:31;4.20;;;1.77;;
78820;SDS011;68171;13.882;99.692;2023-06-14T02:52:37;4.45;;;1.90;;
78820;SDS011;68171;13.882;99.692;2023-06-14T02:53:45;3.72;;;1.85;;
78820;SDS011;68171;13.882;99.692;2023-06-14T02:54:51;4.88;;;1.88;;
78820;SDS011;68171;13.882;99.692;2023-06-14T02:55:59;5.47;;;2.33;;
78820;SDS011;68171;13.882;99.692;2023-06-14T02:57:07;4.13;;;2.10;;
78820;SDS011;68171;13.882;99.692;2023-06-14T02:58:12;3.72;;;1.98;;
78820;SDS011;68171;13.882;99.692;2023-06-14T02:59:18;3.60;;;1.90;;
78820;SDS011;68171;13.882;99.692;2023-06-14T03:00:24;3.58;;;1.77;;
78820;SDS011;68171;13.882;99.692;2023-06-14T03:01:32;3.30;;;1.60;;
78820;SDS011;68171;13.882;99.692;2023-06-14T03:02:38;3.85;;;1.50;;
78820;SDS011;68171;13.882;99.692;2023-06-14T03:03:46;3.10;;;1.65;;
78820;SDS011;68171;13.882;99.692;2023-06-14T03:04:50;5.30;;;1.80;;
78820;SDS011;68171;13.882;99.692;2023-06-14T03:05:57;4.10;;;1.90;;
78820;SDS011;68171;13.882;99.692;2023-06-14T03:07:07;3.87;;;1.70;;
78820;SDS011;68171;13.882;99.692;2023-06-14T03:08:14;3.65;;;1.85;;
78820;SDS011;68171;13.882;99.692;2023-06-14T03:09:20;3.72;;;1.90;;
78820;SDS011;68171;13.882;99.692;2023-06-14T03:10:27;3.63;;;1.70;;
78820;SDS011;68171;13.882;99.692;2023-06-14T03:11:34;3.38;;;1.60;;
78820;SDS011;68171;13.882;99.692;2023-06-14T03:12:40;5.30;;;1.90;;
78820;SDS011;68171;13.882;99.692;2023-06-14T03:13:46;3.97;;;1.73;;
78820;SDS011;68171;13.882;99.692;2023-06-14T03:14:53;3.63;;;1.92;;
78820;SDS011;68171;13.882;99.692;2023-06-14T03:16:00;4.22;;;2.00;;
78820;SDS011;68171;13.882;99.692;2023-06-14T03:17:06;5.32;;;2.20;;
78820;SDS011;68171;13.882;99.692;2023-06-14T03:18:12;4.43;;;2.00;;
78820;SDS011;68171;13.882;99.692;2023-06-14T03:19:18;4.05;;;1.70;;
78820;SDS011;68171;13.882;99.692;2023-06-14T03:20:24;3.30;;;1.75;;
78820;SDS011;68171;13.882;99.692;2023-06-14T03:21:37;4.05;;;1.60;;
78820;SDS011;68171;13.882;99.692;2023-06-14T03:22:47;4.28;;;1.80;;
78820;SDS011;68171;13.882;99.692;2023-06-14T03:23:52;4.90;;;1.80;;
78820;SDS011;68171;13.882;99.692;2023-06-14T03:24:59;3.30;;;1.55;;
78820;SDS011;68171;13.882;99.692;2023-06-14T03:26:03;3.10;;;1.48;;
78820;SDS011;68171;13.882;99.692;2023-06-14T03:27:12;3.35;;;1.70;;
78820;SDS011;68171;13.882;99.692;2023-06-14T03:28:17;4.07;;;1.90;;
78820;SDS011;68171;13.882;99.692;2023-06-14T03:29:23;4.50;;;1.97;;
78820;SDS011;68171;13.882;99.692;2023-06-14T03:30:29;4.53;;;1.90;;
78820;SDS011;68171;13.882;99.692;2023-06-14T03:31:35;4.53;;;1.77;;
78820;SDS011;68171;13.882;99.692;2023-06-14T03:32:44;4.50;;;1.88;;
78820;SDS011;68171;13.882;99.692;2023-06-14T03:33:50;3.55;;;1.60;;
78820;SDS011;68171;13.882;99.692;2023-06-14T03:34:57;5.53;;;1.90;;
78820;SDS011;68171;13.882;99.692;2023-06-14T03:36:02;3.42;;;1.60;;
78820;SDS011;68171;13.882;99.692;2023-06-14T03:37:09;3.85;;;2.08;;
78820;SDS011;68171;13.882;99.692;2023-06-14T03:38:15;3.63;;;1.90;;
78820;SDS011;68171;13.882;99.692;2023-06-14T03:39:20;3.63;;;1.90;;
78820;SDS011;68171;13.882;99.692;2023-06-14T03:40:26;4.23;;;2.07;;
78820;SDS011;68171;13.882;99.692;2023-06-14T03:41:31;4.13;;;2.83;;
78820;SDS011;68171;13.882;99.692;2023-06-14T03:42:39;5.50;;;3.25;;
78820;SDS011;68171;13.882;99.692;2023-06-14T03:43:44;6.18;;;3.22;;
78820;SDS011;68171;13.882;99.692;2023-06-14T03:44:50;6.32;;;3.33;;
78820;SDS011;68171;13.882;99.692;2023-06-14T03:45:55;5.18;;;3.80;;
78820;SDS011;68171;13.882;99.692;2023-06-14T03:47:01;5.50;;;4.03;;
78820;SDS011;68171;13.882;99.692;2023-06-14T03:48:06;6.95;;;3.90;;
78820;SDS011;68171;13.882;99.692;2023-06-14T03:49:12;6.53;;;4.40;;
78820;SDS011;68171;13.882;99.692;2023-06-14T03:50:19;7.13;;;5.03;;
78820;SDS011;68171;13.882;99.692;2023-06-14T03:51:26;6.53;;;4.77;;
78820;SDS011;68171;13.882;99.692;2023-06-14T03:52:31;7.97;;;5.50;;
78820;SDS011;68171;13.882;99.692;2023-06-14T03:53:37;7.82;;;4.95;;
78820;SDS011;68171;13.882;99.692;2023-06-14T03:55:02;5.13;;;4.40;;
78820;SDS011;68171;13.882;99.692;2023-06-14T03:56:29;7.38;;;4.80;;
78820;SDS011;68171;13.882;99.692;2023-06-14T03:57:35;6.63;;;5.20;;
78820;SDS011;68171;13.882;99.692;2023-06-14T03:58:43;8.02;;;6.07;;
78820;SDS011;68171;13.882;99.692;2023-06-14T03:59:48;6.43;;;5.20;;
78820;SDS011;68171;13.882;99.692;2023-06-14T04:00:54;8.73;;;5.13;;
78820;SDS011;68171;13.882;99.692;2023-06-14T04:01:59;6.32;;;4.88;;
78820;SDS011;68171;13.882;99.692;2023-06-14T04:03:05;7.47;;;4.43;;
78820;SDS011;68171;13.882;99.692;2023-06-14T04:04:10;5.03;;;3.53;;
78820;SDS011;68171;13.882;99.692;2023-06-14T04:05:19;8.15;;;3.80;;
78820;SDS011;68171;13.882;99.692;2023-06-14T04:06:23;6.78;;;4.07;;
78820;SDS011;68171;13.882;99.692;2023-06-14T04:07:37;6.03;;;3.63;;
78820;SDS011;68171;13.882;99.692;2023-06-14T04:08:56;4.75;;;3.03;;
78820;SDS011;68171;13.882;99.692;2023-06-14T04:10:08;4.32;;;2.80;;
78820;SDS011;68171;13.882;99.692;2023-06-14T04:11:13;4.63;;;3.10;;
78820;SDS011;68171;13.882;99.692;2023-06-14T04:12:19;5.10;;;2.60;;
78820;SDS011;68171;13.882;99.692;2023-06-14T04:13:23;6.50;;;2.60;;
78820;SDS011;68171;13.882;99.692;2023-06-14T04:14:32;4.20;;;2.03;;
78820;SDS011;68171;13.882;99.692;2023-06-14T04:15:36;3.30;;;1.80;;
78820;SDS011;68171;13.882;99.692;2023-06-14T04:16:45;3.85;;;2.05;;
78820;SDS011;68171;13.882;99.692;2023-06-14T04:17:50;5.35;;;2.00;;
78820;SDS011;68171;13.882;99.692;2023-06-14T04:19:00;4.75;;;2.08;;
78820;SDS011;68171;13.882;99.692;2023-06-14T04:20:05;3.35;;;1.70;;
78820;SDS011;68171;13.882;99.692;2023-06-14T04:21:13;4.90;;;2.08;;
78820;SDS011;68171;13.882;99.692;2023-06-14T04:22:18;3.47;;;2.00;;
78820;SDS011;68171;13.882;99.692;2023-06-14T04:23:24;5.25;;;2.08;;
78820;SDS011;68171;13.882;99.692;2023-06-14T04:24:31;3.95;;;1.90;;
78820;SDS011;68171;13.882;99.692;2023-06-14T04:25:37;4.00;;;1.83;;
78820;SDS011;68171;13.882;99.692;2023-06-14T04:26:43;3.95;;;1.70;;
78820;SDS011;68171;13.882;99.692;2023-06-14T04:27:50;4.22;;;1.90;;
78820;SDS011;68171;13.882;99.692;2023-06-14T04:28:56;3.67;;;1.90;;
78820;SDS011;68171;13.882;99.692;2023-06-14T04:30:08;4.07;;;2.72;;
78820;SDS011;68171;13.882;99.692;2023-06-14T04:31:13;5.63;;;4.32;;
78820;SDS011;68171;13.882;99.692;2023-06-14T04:32:20;7.22;;;4.82;;
78820;SDS011;68171;13.882;99.692;2023-06-14T04:33:24;6.03;;;4.70;;
78820;SDS011;68171;13.882;99.692;2023-06-14T04:34:30;6.90;;;5.20;;
78820;SDS011;68171;13.882;99.692;2023-06-14T04:35:36;6.90;;;4.85;;
78820;SDS011;68171;13.882;99.692;2023-06-14T04:36:43;6.70;;;4.03;;
78820;SDS011;68171;13.882;99.692;2023-06-14T04:37:52;6.00;;;4.60;;
78820;SDS011;68171;13.882;99.692;2023-06-14T04:38:58;5.63;;;4.07;;
78820;SDS011;68171;13.882;99.692;2023-06-14T04:40:03;5.45;;;3.75;;
78820;SDS011;68171;13.882;99.692;2023-06-14T04:41:13;5.63;;;3.20;;
78820;SDS011;68171;13.882;99.692;2023-06-14T04:42:18;5.75;;;3.17;;
78820;SDS011;68171;13.882;99.692;2023-06-14T04:43:29;5.25;;;2.80;;
78820;SDS011;68171;13.882;99.692;2023-06-14T04:44:43;5.65;;;3.10;;
78820;SDS011;68171;13.882;99.692;2023-06-14T04:45:52;6.72;;;3.13;;
78820;SDS011;68171;13.882;99.692;2023-06-14T04:46:59;5.18;;;3.40;;
78820;SDS011;68171;13.882;99.692;2023-06-14T04:48:05;4.57;;;3.00;;
78820;SDS011;68171;13.882;99.692;2023-06-14T04:49:10;7.07;;;3.42;;
78820;SDS011;68171;13.882;99.692;2023-06-14T04:50:18;6.03;;;3.05;;
78820;SDS011;68171;13.882;99.692;2023-06-14T04:51:24;4.80;;;3.00;;
78820;SDS011;68171;13.882;99.692;2023-06-14T04:52:32;5.13;;;3.38;;
78820;SDS011;68171;13.882;99.692;2023-06-14T04:53:40;4.30;;;1.92;;
78820;SDS011;68171;13.882;99.692;2023-06-14T04:54:46;4.40;;;2.83;;
78820;SDS011;68171;13.882;99.692;2023-06-14T04:55:51;4.45;;;2.97;;
78820;SDS011;68171;13.882;99.692;2023-06-14T04:56:57;4.43;;;2.60;;
78820;SDS011;68171;13.882;99.692;2023-06-14T04:58:03;4.18;;;1.90;;
78820;SDS011;68171;13.882;99.692;2023-06-14T04:59:10;3.70;;;2.10;;
78820;SDS011;68171;13.882;99.692;2023-06-14T05:00:19;6.78;;;2.97;;
78820;SDS011;68171;13.882;99.692;2023-06-14T05:01:28;4.88;;;2.78;;
78820;SDS011;68171;13.882;99.692;2023-06-14T05:02:33;7.03;;;3.20;;
78820;SDS011;68171;13.882;99.692;2023-06-14T05:03:41;4.53;;;3.15;;
78820;SDS011;68171;13.882;99.692;2023-06-14T05:04:48;4.43;;;2.95;;
78820;SDS011;68171;13.882;99.692;2023-06-14T05:05:54;5.07;;;2.90;;
78820;SDS011;68171;13.882;99.692;2023-06-14T05:07:00;5.50;;;3.08;;
78820;SDS011;68171;13.882;99.692;2023-06-14T05:08:06;3.90;;;2.50;;
78820;SDS011;68171;13.882;99.692;2023-06-14T05:09:12;4.03;;;2.10;;
78820;SDS011;68171;13.882;99.692;2023-06-14T05:10:19;4.23;;;2.50;;
78820;SDS011;68171;13.882;99.692;2023-06-14T05:11:24;4.63;;;3.10;;
78820;SDS011;68171;13.882;99.692;2023-06-14T05:12:30;6.03;;;3.28;;
78820;SDS011;68171;13.882;99.692;2023-06-14T05:13:35;4.47;;;2.33;;
78820;SDS011;68171;13.882;99.692;2023-06-14T05:14:43;4.80;;;2.47;;
78820;SDS011;68171;13.882;99.692;2023-06-14T05:15:48;4.78;;;1.92;;
78820;SDS011;68171;13.882;99.692;2023-06-14T05:16:57;4.22;;;1.80;;
78820;SDS011;68171;13.882;99.692;2023-06-14T05:18:02;3.75;;;1.88;;
78820;SDS011;68171;13.882;99.692;2023-06-14T05:19:12;5.55;;;2.17;;
78820;SDS011;68171;13.882;99.692;2023-06-14T05:20:17;3.47;;;1.80;;
78820;SDS011;68171;13.882;99.692;2023-06-14T05:21:23;5.50;;;1.97;;
78820;SDS011;68171;13.882;99.692;2023-06-14T05:22:28;4.47;;;2.13;;
78820;SDS011;68171;13.882;99.692;2023-06-14T05:23:34;3.78;;;1.80;;
78820;SDS011;68171;13.882;99.692;2023-06-14T05:24:39;4.57;;;2.10;;
78820;SDS011;68171;13.882;99.692;2023-06-14T05:25:46;4.80;;;2.15;;
78820;SDS011;68171;13.882;99.692;2023-06-14T05:26:51;4.72;;;2.00;;
78820;SDS011;68171;13.882;99.692;2023-06-14T05:27:58;4.97;;;1.73;;
78820;SDS011;68171;13.882;99.692;2023-06-14T05:29:04;3.50;;;1.65;;
78820;SDS011;68171;13.882;99.692;2023-06-14T05:30:09;5.70;;;1.88;;
78820;SDS011;68171;13.882;99.692;2023-06-14T05:31:17;4.50;;;1.90;;
78820;SDS011;68171;13.882;99.692;2023-06-14T05:32:24;3.87;;;1.67;;
78820;SDS011;68171;13.882;99.692;2023-06-14T05:33:29;4.75;;;1.80;;
78820;SDS011;68171;13.882;99.692;2023-06-14T05:34:35;3.75;;;1.80;;
78820;SDS011;68171;13.882;99.692;2023-06-14T05:35:41;4.35;;;1.77;;
78820;SDS011;68171;13.882;99.692;2023-06-14T05:36:47;4.85;;;2.05;;
78820;SDS011;68171;13.882;99.692;2023-06-14T05:37:52;4.90;;;1.90;;
78820;SDS011;68171;13.882;99.692;2023-06-14T05:38:58;5.15;;;2.30;;
78820;SDS011;68171;13.882;99.692;2023-06-14T05:40:06;4.15;;;2.10;;
78820;SDS011;68171;13.882;99.692;2023-06-14T05:41:12;5.00;;;2.15;;
78820;SDS011;68171;13.882;99.692;2023-06-14T05:42:19;5.60;;;2.33;;
78820;SDS011;68171;13.882;99.692;2023-06-14T05:43:24;5.73;;;2.17;;
78820;SDS011;68171;13.882;99.692;2023-06-14T05:44:30;5.05;;;2.47;;
78820;SDS011;68171;13.882;99.692;2023-06-14T05:45:35;4.13;;;1.98;;
78820;SDS011;68171;13.882;99.692;2023-06-14T05:46:41;4.40;;;1.92;;
78820;SDS011;68171;13.882;99.692;2023-06-14T05:47:49;5.03;;;2.42;;
78820;SDS011;68171;13.882;99.692;2023-06-14T05:48:55;5.00;;;2.00;;
78820;SDS011;68171;13.882;99.692;2023-06-14T05:50:00;13.20;;;2.22;;
78820;SDS011;68171;13.882;99.692;2023-06-14T05:51:07;5.07;;;2.17;;
78820;SDS011;68171;13.882;99.692;2023-06-14T05:52:11;5.07;;;2.00;;
78820;SDS011;68171;13.882;99.692;2023-06-14T05:53:17;4.20;;;1.77;;
78820;SDS011;68171;13.882;99.692;2023-06-14T05:54:22;3.60;;;1.70;;
78820;SDS011;68171;13.882;99.692;2023-06-14T05:55:28;4.13;;;1.90;;
78820;SDS011;68171;13.882;99.692;2023-06-14T05:56:33;5.03;;;1.90;;
78820;SDS011;68171;13.882;99.692;2023-06-14T05:57:39;4.57;;;2.13;;
78820;SDS011;68171;13.882;99.692;2023-06-14T05:58:44;5.20;;;2.38;;
78820;SDS011;68171;13.882;99.692;2023-06-14T05:59:51;5.22;;;2.10;;
78820;SDS011;68171;13.882;99.692;2023-06-14T06:00:56;5.50;;;2.00;;
78820;SDS011;68171;13.882;99.692;2023-06-14T06:02:02;4.80;;;2.42;;
78820;SDS011;68171;13.882;99.692;2023-06-14T06:03:10;4.80;;;2.22;;
78820;SDS011;68171;13.882;99.692;2023-06-14T06:04:17;4.28;;;2.03;;
78820;SDS011;68171;13.882;99.692;2023-06-14T06:05:22;7.20;;;2.30;;
78820;SDS011;68171;13.882;99.692;2023-06-14T06:06:28;4.97;;;2.17;;
78820;SDS011;68171;13.882;99.692;2023-06-14T06:07:33;4.60;;;2.45;;
78820;SDS011;68171;13.882;99.692;2023-06-14T06:08:39;6.18;;;2.63;;
78820;SDS011;68171;13.882;99.692;2023-06-14T06:09:44;4.97;;;2.47;;
78820;SDS011;68171;13.882;99.692;2023-06-14T06:10:51;6.07;;;2.42;;
78820;SDS011;68171;13.882;99.692;2023-06-14T06:11:56;5.57;;;2.67;;
78820;SDS011;68171;13.882;99.692;2023-06-14T06:13:02;6.60;;;2.65;;
78820;SDS011;68171;13.882;99.692;2023-06-14T06:14:07;5.47;;;2.20;;
78820;SDS011;68171;13.882;99.692;2023-06-14T06:15:13;5.72;;;2.25;;
78820;SDS011;68171;13.882;99.692;2023-06-14T06:16:20;5.00;;;2.23;;
78820;SDS011;68171;13.882;99.692;2023-06-14T06:17:27;7.35;;;2.10;;
78820;SDS011;68171;13.882;99.692;2023-06-14T06:18:49;3.83;;;1.80;;
78820;SDS011;68171;13.882;99.692;2023-06-14T06:19:56;4.75;;;2.20;;
78820;SDS011;68171;13.882;99.692;2023-06-14T06:21:01;4.57;;;2.28;;
78820;SDS011;68171;13.882;99.692;2023-06-14T06:22:08;5.22;;;2.28;;
78820;SDS011;68171;13.882;99.692;2023-06-14T06:23:13;6.57;;;2.40;;
78820;SDS011;68171;13.882;99.692;2023-06-14T06:24:19;4.90;;;2.40;;
78820;SDS011;68171;13.882;99.692;2023-06-14T06:25:25;5.53;;;2.13;;
78820;SDS011;68171;13.882;99.692;2023-06-14T06:26:31;8.00;;;2.33;;
78820;SDS011;68171;13.882;99.692;2023-06-14T06:27:36;4.70;;;2.30;;
78820;SDS011;68171;13.882;99.692;2023-06-14T06:28:43;4.40;;;2.22;;
78820;SDS011;68171;13.882;99.692;2023-06-14T06:29:47;3.78;;;2.28;;
78820;SDS011;68171;13.882;99.692;2023-06-14T06:30:55;4.78;;;2.42;;
78820;SDS011;68171;13.882;99.692;2023-06-14T06:32:01;7.07;;;2.65;;
78820;SDS011;68171;13.882;99.692;2023-06-14T06:33:05;6.60;;;2.67;;
78820;SDS011;68171;13.882;99.692;2023-06-14T06:34:14;6.50;;;2.45;;
78820;SDS011;68171;13.882;99.692;2023-06-14T06:35:19;6.80;;;2.70;;
78820;SDS011;68171;13.882;99.692;2023-06-14T06:36:25;5.28;;;2.47;;